Darlag, China
Current Conditions -  °F | °C
As of 2:00 PM on Sunday 26 Oct 2014 (Local Time) from ZLLL Reporting Station
Clear Clear  
Wind Chill: 63°   Ceiling: Unl
Heat Index: 63°   Visibility: 6mi
Dew Point: 39°   Wind: 4mph
Humidity: 42%   Direction: NA
Pressure: 30.21"   Gusts: NA
Location:  33.75°N, 99.65°E
Report Text: ZLLL 260600Z VRB02MPS CAVOK 17/04 Q1023 NOSIG
Loading
Personal Weather Stations






























Interactive Weather Map
Tropical Storm Tracking
New forecast layout! Learn more

10-Day Weather Forecast

Advertisements
Track Severe Weather on mobile